sensor_id;sensor_type;location;lat;lon;timestamp;P1;durP1;ratioP1;P2;durP2;ratioP2
58306;SDS011;44116;50.884;4.768;2022-07-22T00:00:22;9.3;;;2.9;;
58306;SDS011;44116;50.884;4.768;2022-07-22T00:02:22;9.7;;;3.0;;
58306;SDS011;44116;50.884;4.768;2022-07-22T00:04:21;11.5;;;3.1;;
58306;SDS011;44116;50.884;4.768;2022-07-22T00:06:21;11.4;;;3.3;;
58306;SDS011;44116;50.884;4.768;2022-07-22T00:08:21;9.3;;;3.2;;
58306;SDS011;44116;50.884;4.768;2022-07-22T00:10:21;10.0;;;3.1;;
58306;SDS011;44116;50.884;4.768;2022-07-22T00:12:21;10.1;;;2.9;;
58306;SDS011;44116;50.884;4.768;2022-07-22T00:14:21;8.9;;;3.3;;
58306;SDS011;44116;50.884;4.768;2022-07-22T00:18:21;11.3;;;3.2;;
58306;SDS011;44116;50.884;4.768;2022-07-22T00:20:21;11.1;;;3.1;;
58306;SDS011;44116;50.884;4.768;2022-07-22T00:24:21;9.5;;;3.2;;
58306;SDS011;44116;50.884;4.768;2022-07-22T00:26:21;11.2;;;3.4;;
58306;SDS011;44116;50.884;4.768;2022-07-22T00:28:20;7.2;;;3.0;;
58306;SDS011;44116;50.884;4.768;2022-07-22T00:30:20;9.0;;;3.2;;
58306;SDS011;44116;50.884;4.768;2022-07-22T00:32:20;12.8;;;3.1;;
58306;SDS011;44116;50.884;4.768;2022-07-22T00:36:20;11.9;;;2.9;;
58306;SDS011;44116;50.884;4.768;2022-07-22T00:38:20;9.8;;;3.1;;
58306;SDS011;44116;50.884;4.768;2022-07-22T00:40:20;11.8;;;2.9;;
58306;SDS011;44116;50.884;4.768;2022-07-22T00:42:19;11.5;;;3.1;;
58306;SDS011;44116;50.884;4.768;2022-07-22T00:44:19;13.7;;;3.6;;
58306;SDS011;44116;50.884;4.768;2022-07-22T00:46:19;8.4;;;2.6;;
58306;SDS011;44116;50.884;4.768;2022-07-22T00:48:19;10.1;;;2.8;;
58306;SDS011;44116;50.884;4.768;2022-07-22T00:50:19;11.8;;;3.2;;
58306;SDS011;44116;50.884;4.768;2022-07-22T00:52:19;9.2;;;3.1;;
58306;SDS011;44116;50.884;4.768;2022-07-22T00:54:19;13.2;;;3.3;;
58306;SDS011;44116;50.884;4.768;2022-07-22T00:56:19;7.9;;;2.7;;
58306;SDS011;44116;50.884;4.768;2022-07-22T00:58:18;8.5;;;3.0;;
58306;SDS011;44116;50.884;4.768;2022-07-22T01:00:21;7.7;;;3.2;;
58306;SDS011;44116;50.884;4.768;2022-07-22T01:02:18;8.2;;;2.8;;
58306;SDS011;44116;50.884;4.768;2022-07-22T01:04:18;11.9;;;3.0;;
58306;SDS011;44116;50.884;4.768;2022-07-22T01:06:18;11.1;;;3.2;;
58306;SDS011;44116;50.884;4.768;2022-07-22T01:08:18;9.8;;;2.8;;
58306;SDS011;44116;50.884;4.768;2022-07-22T01:12:18;8.9;;;2.7;;
58306;SDS011;44116;50.884;4.768;2022-07-22T01:14:18;8.2;;;2.8;;
58306;SDS011;44116;50.884;4.768;2022-07-22T01:16:17;7.4;;;2.6;;
58306;SDS011;44116;50.884;4.768;2022-07-22T01:18:17;8.6;;;3.0;;
58306;SDS011;44116;50.884;4.768;2022-07-22T01:20:17;8.8;;;2.8;;
58306;SDS011;44116;50.884;4.768;2022-07-22T01:22:17;9.7;;;3.1;;
58306;SDS011;44116;50.884;4.768;2022-07-22T01:24:17;9.5;;;2.9;;
58306;SDS011;44116;50.884;4.768;2022-07-22T01:26:17;9.9;;;2.5;;
58306;SDS011;44116;50.884;4.768;2022-07-22T01:28:17;8.3;;;2.7;;
58306;SDS011;44116;50.884;4.768;2022-07-22T01:30:17;8.9;;;3.0;;
58306;SDS011;44116;50.884;4.768;2022-07-22T01:34:16;10.1;;;2.9;;
58306;SDS011;44116;50.884;4.768;2022-07-22T01:36:16;6.9;;;2.7;;
58306;SDS011;44116;50.884;4.768;2022-07-22T01:38:17;9.2;;;2.9;;
58306;SDS011;44116;50.884;4.768;2022-07-22T01:40:16;7.6;;;2.7;;
58306;SDS011;44116;50.884;4.768;2022-07-22T01:42:16;9.0;;;2.6;;
58306;SDS011;44116;50.884;4.768;2022-07-22T01:48:15;9.6;;;2.9;;
58306;SDS011;44116;50.884;4.768;2022-07-22T01:50:15;11.2;;;3.0;;
58306;SDS011;44116;50.884;4.768;2022-07-22T01:52:15;8.8;;;2.6;;
58306;SDS011;44116;50.884;4.768;2022-07-22T01:54:15;9.0;;;2.7;;
58306;SDS011;44116;50.884;4.768;2022-07-22T01:56:15;14.1;;;3.4;;
58306;SDS011;44116;50.884;4.768;2022-07-22T01:58:14;8.7;;;2.8;;
58306;SDS011;44116;50.884;4.768;2022-07-22T02:00:15;9.3;;;2.7;;
58306;SDS011;44116;50.884;4.768;2022-07-22T02:02:14;9.3;;;2.8;;
58306;SDS011;44116;50.884;4.768;2022-07-22T02:04:14;6.5;;;2.3;;
58306;SDS011;44116;50.884;4.768;2022-07-22T02:06:14;9.5;;;2.9;;
58306;SDS011;44116;50.884;4.768;2022-07-22T02:08:14;7.4;;;2.6;;
58306;SDS011;44116;50.884;4.768;2022-07-22T02:10:14;8.9;;;2.4;;
58306;SDS011;44116;50.884;4.768;2022-07-22T02:12:14;7.2;;;2.7;;
58306;SDS011;44116;50.884;4.768;2022-07-22T02:14:13;7.7;;;2.8;;
58306;SDS011;44116;50.884;4.768;2022-07-22T02:16:13;10.7;;;2.7;;
58306;SDS011;44116;50.884;4.768;2022-07-22T02:18:15;9.4;;;3.0;;
58306;SDS011;44116;50.884;4.768;2022-07-22T02:20:13;7.2;;;2.8;;
58306;SDS011;44116;50.884;4.768;2022-07-22T02:22:13;11.7;;;2.7;;
58306;SDS011;44116;50.884;4.768;2022-07-22T02:24:13;6.2;;;2.6;;
58306;SDS011;44116;50.884;4.768;2022-07-22T02:26:13;10.9;;;2.8;;
58306;SDS011;44116;50.884;4.768;2022-07-22T02:28:13;7.4;;;3.1;;
58306;SDS011;44116;50.884;4.768;2022-07-22T02:30:12;10.4;;;3.0;;
58306;SDS011;44116;50.884;4.768;2022-07-22T02:32:12;6.3;;;2.6;;
58306;SDS011;44116;50.884;4.768;2022-07-22T02:38:12;10.2;;;2.7;;
58306;SDS011;44116;50.884;4.768;2022-07-22T02:40:12;8.7;;;2.9;;
58306;SDS011;44116;50.884;4.768;2022-07-22T02:42:11;9.4;;;3.1;;
58306;SDS011;44116;50.884;4.768;2022-07-22T02:46:11;10.8;;;2.8;;
58306;SDS011;44116;50.884;4.768;2022-07-22T02:48:11;9.1;;;2.6;;
58306;SDS011;44116;50.884;4.768;2022-07-22T02:50:11;12.9;;;3.2;;
58306;SDS011;44116;50.884;4.768;2022-07-22T02:52:11;8.5;;;2.7;;
58306;SDS011;44116;50.884;4.768;2022-07-22T02:54:11;9.9;;;3.1;;
58306;SDS011;44116;50.884;4.768;2022-07-22T02:56:11;10.3;;;2.8;;
58306;SDS011;44116;50.884;4.768;2022-07-22T02:58:10;11.4;;;3.2;;
58306;SDS011;44116;50.884;4.768;2022-07-22T03:00:12;8.0;;;3.1;;
58306;SDS011;44116;50.884;4.768;2022-07-22T03:02:10;8.6;;;3.2;;
58306;SDS011;44116;50.884;4.768;2022-07-22T03:04:10;8.4;;;3.1;;
58306;SDS011;44116;50.884;4.768;2022-07-22T03:06:10;8.9;;;3.4;;
58306;SDS011;44116;50.884;4.768;2022-07-22T03:08:09;8.0;;;3.3;;
58306;SDS011;44116;50.884;4.768;2022-07-22T03:10:09;14.1;;;3.9;;
58306;SDS011;44116;50.884;4.768;2022-07-22T03:12:09;11.3;;;4.0;;
58306;SDS011;44116;50.884;4.768;2022-07-22T03:14:09;10.2;;;3.9;;
58306;SDS011;44116;50.884;4.768;2022-07-22T03:16:09;10.2;;;3.4;;
58306;SDS011;44116;50.884;4.768;2022-07-22T03:18:09;7.3;;;3.7;;
58306;SDS011;44116;50.884;4.768;2022-07-22T03:20:10;8.7;;;3.6;;
58306;SDS011;44116;50.884;4.768;2022-07-22T03:22:08;10.9;;;3.5;;
58306;SDS011;44116;50.884;4.768;2022-07-22T03:26:08;13.4;;;4.0;;
58306;SDS011;44116;50.884;4.768;2022-07-22T03:28:08;9.5;;;3.7;;
58306;SDS011;44116;50.884;4.768;2022-07-22T03:30:08;14.3;;;4.2;;
58306;SDS011;44116;50.884;4.768;2022-07-22T03:32:08;11.3;;;3.7;;
58306;SDS011;44116;50.884;4.768;2022-07-22T03:34:08;11.1;;;4.2;;
58306;SDS011;44116;50.884;4.768;2022-07-22T03:36:07;12.7;;;3.6;;
58306;SDS011;44116;50.884;4.768;2022-07-22T03:38:07;11.2;;;3.4;;
58306;SDS011;44116;50.884;4.768;2022-07-22T03:40:08;11.8;;;3.8;;
58306;SDS011;44116;50.884;4.768;2022-07-22T03:42:07;16.8;;;4.0;;
58306;SDS011;44116;50.884;4.768;2022-07-22T03:44:07;16.1;;;4.1;;
58306;SDS011;44116;50.884;4.768;2022-07-22T03:46:06;15.1;;;4.3;;
58306;SDS011;44116;50.884;4.768;2022-07-22T03:48:06;12.8;;;3.9;;
58306;SDS011;44116;50.884;4.768;2022-07-22T03:50:07;12.0;;;4.0;;
58306;SDS011;44116;50.884;4.768;2022-07-22T03:54:06;10.6;;;3.7;;
58306;SDS011;44116;50.884;4.768;2022-07-22T03:56:06;9.0;;;4.0;;
58306;SDS011;44116;50.884;4.768;2022-07-22T03:58:06;9.9;;;3.8;;
58306;SDS011;44116;50.884;4.768;2022-07-22T04:00:07;12.2;;;4.3;;
58306;SDS011;44116;50.884;4.768;2022-07-22T04:02:05;11.0;;;4.4;;
58306;SDS011;44116;50.884;4.768;2022-07-22T04:04:05;12.9;;;4.6;;
58306;SDS011;44116;50.884;4.768;2022-07-22T04:08:05;13.6;;;4.9;;
58306;SDS011;44116;50.884;4.768;2022-07-22T04:10:06;12.1;;;4.7;;
58306;SDS011;44116;50.884;4.768;2022-07-22T04:12:05;14.8;;;4.8;;
58306;SDS011;44116;50.884;4.768;2022-07-22T04:14:04;13.5;;;4.2;;
58306;SDS011;44116;50.884;4.768;2022-07-22T04:16:04;13.1;;;4.6;;
58306;SDS011;44116;50.884;4.768;2022-07-22T04:18:04;10.2;;;4.2;;
58306;SDS011;44116;50.884;4.768;2022-07-22T04:22:04;13.3;;;4.7;;
58306;SDS011;44116;50.884;4.768;2022-07-22T04:24:04;11.3;;;4.5;;
58306;SDS011;44116;50.884;4.768;2022-07-22T04:26:04;16.6;;;4.7;;
58306;SDS011;44116;50.884;4.768;2022-07-22T04:28:04;14.8;;;4.2;;
58306;SDS011;44116;50.884;4.768;2022-07-22T04:30:04;12.2;;;4.3;;
58306;SDS011;44116;50.884;4.768;2022-07-22T04:32:03;17.7;;;5.0;;
58306;SDS011;44116;50.884;4.768;2022-07-22T04:36:04;19.7;;;4.9;;
58306;SDS011;44116;50.884;4.768;2022-07-22T04:38:02;14.6;;;4.4;;
58306;SDS011;44116;50.884;4.768;2022-07-22T04:40:03;17.8;;;5.2;;
58306;SDS011;44116;50.884;4.768;2022-07-22T04:42:02;11.3;;;4.0;;
58306;SDS011;44116;50.884;4.768;2022-07-22T04:44:02;11.6;;;4.2;;
58306;SDS011;44116;50.884;4.768;2022-07-22T04:46:02;14.8;;;4.7;;
58306;SDS011;44116;50.884;4.768;2022-07-22T04:48:02;14.5;;;4.6;;
58306;SDS011;44116;50.884;4.768;2022-07-22T04:50:02;14.2;;;4.9;;
58306;SDS011;44116;50.884;4.768;2022-07-22T04:52:01;11.5;;;4.6;;
58306;SDS011;44116;50.884;4.768;2022-07-22T04:54:01;11.7;;;5.0;;
58306;SDS011;44116;50.884;4.768;2022-07-22T04:56:01;9.7;;;4.5;;
58306;SDS011;44116;50.884;4.768;2022-07-22T04:58:01;15.3;;;5.2;;
58306;SDS011;44116;50.884;4.768;2022-07-22T05:00:02;12.9;;;4.9;;
58306;SDS011;44116;50.884;4.768;2022-07-22T05:02:01;13.5;;;4.5;;
58306;SDS011;44116;50.884;4.768;2022-07-22T05:04:01;14.4;;;5.2;;
58306;SDS011;44116;50.884;4.768;2022-07-22T05:08:01;12.7;;;5.0;;
58306;SDS011;44116;50.884;4.768;2022-07-22T05:10:00;11.3;;;5.5;;
58306;SDS011;44116;50.884;4.768;2022-07-22T05:14:00;10.8;;;5.2;;
58306;SDS011;44116;50.884;4.768;2022-07-22T05:16:02;14.3;;;6.4;;
58306;SDS011;44116;50.884;4.768;2022-07-22T05:17:59;11.7;;;5.3;;
58306;SDS011;44116;50.884;4.768;2022-07-22T05:20:01;12.6;;;5.6;;
58306;SDS011;44116;50.884;4.768;2022-07-22T05:21:59;11.7;;;6.1;;
58306;SDS011;44116;50.884;4.768;2022-07-22T05:23:59;12.9;;;5.9;;
58306;SDS011;44116;50.884;4.768;2022-07-22T05:25:59;13.7;;;6.8;;
58306;SDS011;44116;50.884;4.768;2022-07-22T05:27:59;14.6;;;7.5;;
58306;SDS011;44116;50.884;4.768;2022-07-22T05:29:59;13.4;;;6.5;;
58306;SDS011;44116;50.884;4.768;2022-07-22T05:31:58;14.0;;;7.1;;
58306;SDS011;44116;50.884;4.768;2022-07-22T05:33:58;14.0;;;6.8;;
58306;SDS011;44116;50.884;4.768;2022-07-22T05:35:59;15.3;;;7.0;;
58306;SDS011;44116;50.884;4.768;2022-07-22T05:37:58;14.8;;;7.4;;
58306;SDS011;44116;50.884;4.768;2022-07-22T05:39:58;14.2;;;6.9;;
58306;SDS011;44116;50.884;4.768;2022-07-22T05:41:58;14.6;;;7.1;;
58306;SDS011;44116;50.884;4.768;2022-07-22T05:43:58;14.6;;;6.9;;
58306;SDS011;44116;50.884;4.768;2022-07-22T05:45:57;18.6;;;7.6;;
58306;SDS011;44116;50.884;4.768;2022-07-22T05:47:58;14.7;;;7.2;;
58306;SDS011;44116;50.884;4.768;2022-07-22T05:49:57;18.7;;;7.9;;
58306;SDS011;44116;50.884;4.768;2022-07-22T05:51:57;16.4;;;7.5;;
58306;SDS011;44116;50.884;4.768;2022-07-22T05:53:57;13.2;;;7.7;;
58306;SDS011;44116;50.884;4.768;2022-07-22T05:55:57;15.5;;;7.6;;
58306;SDS011;44116;50.884;4.768;2022-07-22T05:57:57;13.4;;;7.3;;
58306;SDS011;44116;50.884;4.768;2022-07-22T05:59:56;15.5;;;7.0;;
58306;SDS011;44116;50.884;4.768;2022-07-22T06:01:56;15.3;;;8.2;;
58306;SDS011;44116;50.884;4.768;2022-07-22T06:03:56;15.5;;;7.6;;
58306;SDS011;44116;50.884;4.768;2022-07-22T06:05:56;16.6;;;7.4;;
58306;SDS011;44116;50.884;4.768;2022-07-22T06:07:56;14.5;;;7.5;;
58306;SDS011;44116;50.884;4.768;2022-07-22T06:11:56;14.0;;;6.9;;
58306;SDS011;44116;50.884;4.768;2022-07-22T06:13:56;12.8;;;6.4;;
58306;SDS011;44116;50.884;4.768;2022-07-22T06:15:55;17.1;;;6.5;;
58306;SDS011;44116;50.884;4.768;2022-07-22T06:19:55;11.6;;;6.0;;
58306;SDS011;44116;50.884;4.768;2022-07-22T06:21:56;14.3;;;6.6;;
58306;SDS011;44116;50.884;4.768;2022-07-22T06:23:55;12.0;;;6.0;;
58306;SDS011;44116;50.884;4.768;2022-07-22T06:25:55;13.7;;;5.9;;
58306;SDS011;44116;50.884;4.768;2022-07-22T06:29:55;14.5;;;6.3;;
58306;SDS011;44116;50.884;4.768;2022-07-22T06:31:55;11.4;;;5.7;;
58306;SDS011;44116;50.884;4.768;2022-07-22T06:35:54;11.6;;;6.2;;
58306;SDS011;44116;50.884;4.768;2022-07-22T06:37:54;12.6;;;5.5;;
58306;SDS011;44116;50.884;4.768;2022-07-22T06:39:54;14.1;;;6.3;;
58306;SDS011;44116;50.884;4.768;2022-07-22T06:41:54;13.4;;;6.0;;
58306;SDS011;44116;50.884;4.768;2022-07-22T06:43:54;8.7;;;5.8;;
58306;SDS011;44116;50.884;4.768;2022-07-22T06:45:54;11.1;;;5.4;;
58306;SDS011;44116;50.884;4.768;2022-07-22T06:49:54;12.1;;;5.5;;
58306;SDS011;44116;50.884;4.768;2022-07-22T06:51:54;10.6;;;5.7;;
58306;SDS011;44116;50.884;4.768;2022-07-22T06:53:54;11.7;;;5.0;;
58306;SDS011;44116;50.884;4.768;2022-07-22T06:55:54;11.6;;;5.6;;
58306;SDS011;44116;50.884;4.768;2022-07-22T06:57:53;9.8;;;5.2;;
58306;SDS011;44116;50.884;4.768;2022-07-22T07:05:53;9.2;;;4.5;;
58306;SDS011;44116;50.884;4.768;2022-07-22T07:07:53;9.0;;;4.6;;
58306;SDS011;44116;50.884;4.768;2022-07-22T07:09:53;9.8;;;4.9;;
58306;SDS011;44116;50.884;4.768;2022-07-22T07:11:53;8.2;;;4.6;;
58306;SDS011;44116;50.884;4.768;2022-07-22T07:13:52;8.0;;;4.7;;
58306;SDS011;44116;50.884;4.768;2022-07-22T07:15:52;11.5;;;4.8;;
58306;SDS011;44116;50.884;4.768;2022-07-22T07:17:54;11.0;;;4.6;;
58306;SDS011;44116;50.884;4.768;2022-07-22T07:19:52;9.3;;;4.5;;
58306;SDS011;44116;50.884;4.768;2022-07-22T07:23:52;9.4;;;4.8;;
58306;SDS011;44116;50.884;4.768;2022-07-22T07:25:52;10.5;;;5.3;;
58306;SDS011;44116;50.884;4.768;2022-07-22T07:27:52;10.8;;;4.8;;
58306;SDS011;44116;50.884;4.768;2022-07-22T07:31:52;11.0;;;4.7;;
58306;SDS011;44116;50.884;4.768;2022-07-22T07:33:52;11.5;;;4.6;;
58306;SDS011;44116;50.884;4.768;2022-07-22T07:35:52;12.5;;;5.1;;
58306;SDS011;44116;50.884;4.768;2022-07-22T07:37:52;7.9;;;4.0;;
58306;SDS011;44116;50.884;4.768;2022-07-22T07:39:51;8.6;;;4.3;;
58306;SDS011;44116;50.884;4.768;2022-07-22T07:41:51;9.4;;;3.7;;
58306;SDS011;44116;50.884;4.768;2022-07-22T07:43:52;8.1;;;3.3;;
58306;SDS011;44116;50.884;4.768;2022-07-22T07:45:51;8.3;;;4.0;;
58306;SDS011;44116;50.884;4.768;2022-07-22T07:47:51;9.5;;;4.1;;
58306;SDS011;44116;50.884;4.768;2022-07-22T07:49:52;7.5;;;3.6;;
58306;SDS011;44116;50.884;4.768;2022-07-22T07:51:51;7.0;;;3.5;;
58306;SDS011;44116;50.884;4.768;2022-07-22T07:53:51;8.0;;;3.6;;
58306;SDS011;44116;50.884;4.768;2022-07-22T07:55:51;7.8;;;3.5;;
58306;SDS011;44116;50.884;4.768;2022-07-22T07:57:51;7.5;;;3.9;;
58306;SDS011;44116;50.884;4.768;2022-07-22T07:59:51;7.5;;;4.1;;
58306;SDS011;44116;50.884;4.768;2022-07-22T08:01:51;6.9;;;3.7;;
58306;SDS011;44116;50.884;4.768;2022-07-22T08:03:51;8.3;;;3.8;;
58306;SDS011;44116;50.884;4.768;2022-07-22T08:05:51;7.4;;;3.6;;
58306;SDS011;44116;50.884;4.768;2022-07-22T08:07:51;6.3;;;3.3;;
58306;SDS011;44116;50.884;4.768;2022-07-22T08:09:51;8.1;;;3.0;;
58306;SDS011;44116;50.884;4.768;2022-07-22T08:11:50;6.0;;;2.7;;
58306;SDS011;44116;50.884;4.768;2022-07-22T08:13:50;7.5;;;3.5;;
58306;SDS011;44116;50.884;4.768;2022-07-22T08:15:51;7.4;;;3.2;;
58306;SDS011;44116;50.884;4.768;2022-07-22T08:21:50;5.7;;;3.3;;
58306;SDS011;44116;50.884;4.768;2022-07-22T08:23:51;6.9;;;3.2;;
58306;SDS011;44116;50.884;4.768;2022-07-22T08:25:50;5.8;;;3.1;;
58306;SDS011;44116;50.884;4.768;2022-07-22T08:31:50;7.8;;;3.0;;
58306;SDS011;44116;50.884;4.768;2022-07-22T08:33:50;8.4;;;3.5;;
58306;SDS011;44116;50.884;4.768;2022-07-22T08:35:50;7.4;;;3.0;;
58306;SDS011;44116;50.884;4.768;2022-07-22T08:37:50;7.0;;;3.2;;
58306;SDS011;44116;50.884;4.768;2022-07-22T08:39:50;7.1;;;3.4;;
58306;SDS011;44116;50.884;4.768;2022-07-22T08:41:50;7.6;;;3.2;;
58306;SDS011;44116;50.884;4.768;2022-07-22T08:43:51;6.4;;;3.5;;
58306;SDS011;44116;50.884;4.768;2022-07-22T08:47:51;7.6;;;3.4;;
58306;SDS011;44116;50.884;4.768;2022-07-22T08:49:50;8.9;;;3.6;;
58306;SDS011;44116;50.884;4.768;2022-07-22T08:53:50;7.5;;;3.8;;
58306;SDS011;44116;50.884;4.768;2022-07-22T08:57:50;8.8;;;3.7;;
58306;SDS011;44116;50.884;4.768;2022-07-22T08:59:51;7.6;;;3.8;;
58306;SDS011;44116;50.884;4.768;2022-07-22T09:03:51;4.9;;;3.3;;
58306;SDS011;44116;50.884;4.768;2022-07-22T09:05:50;8.0;;;3.8;;
58306;SDS011;44116;50.884;4.768;2022-07-22T09:07:50;6.9;;;4.1;;
58306;SDS011;44116;50.884;4.768;2022-07-22T09:09:50;7.3;;;4.0;;
58306;SDS011;44116;50.884;4.768;2022-07-22T09:13:50;8.2;;;4.1;;
58306;SDS011;44116;50.884;4.768;2022-07-22T09:15:51;8.4;;;4.2;;
58306;SDS011;44116;50.884;4.768;2022-07-22T09:17:49;7.5;;;3.9;;
58306;SDS011;44116;50.884;4.768;2022-07-22T09:19:49;7.5;;;3.7;;
58306;SDS011;44116;50.884;4.768;2022-07-22T09:21:50;6.5;;;3.6;;
58306;SDS011;44116;50.884;4.768;2022-07-22T09:25:49;8.4;;;3.7;;
58306;SDS011;44116;50.884;4.768;2022-07-22T09:27:50;6.9;;;3.5;;
58306;SDS011;44116;50.884;4.768;2022-07-22T09:29:49;7.6;;;3.8;;
58306;SDS011;44116;50.884;4.768;2022-07-22T09:31:50;6.2;;;3.6;;
58306;SDS011;44116;50.884;4.768;2022-07-22T09:33:49;5.7;;;3.5;;
58306;SDS011;44116;50.884;4.768;2022-07-22T09:35:49;6.0;;;3.0;;
58306;SDS011;44116;50.884;4.768;2022-07-22T09:37:51;6.6;;;3.4;;
58306;SDS011;44116;50.884;4.768;2022-07-22T09:39:49;5.2;;;3.1;;
58306;SDS011;44116;50.884;4.768;2022-07-22T09:41:57;7.6;;;3.6;;
58306;SDS011;44116;50.884;4.768;2022-07-22T09:43:49;6.2;;;3.5;;
58306;SDS011;44116;50.884;4.768;2022-07-22T09:45:50;5.4;;;2.7;;
58306;SDS011;44116;50.884;4.768;2022-07-22T09:47:49;4.8;;;3.0;;
58306;SDS011;44116;50.884;4.768;2022-07-22T09:49:49;7.0;;;2.8;;
58306;SDS011;44116;50.884;4.768;2022-07-22T09:51:49;5.6;;;3.3;;
58306;SDS011;44116;50.884;4.768;2022-07-22T09:53:49;7.3;;;3.7;;
58306;SDS011;44116;50.884;4.768;2022-07-22T09:55:49;6.1;;;3.1;;
58306;SDS011;44116;50.884;4.768;2022-07-22T09:57:50;7.1;;;2.9;;
58306;SDS011;44116;50.884;4.768;2022-07-22T09:59:49;6.8;;;3.1;;
58306;SDS011;44116;50.884;4.768;2022-07-22T10:03:51;4.9;;;2.8;;
58306;SDS011;44116;50.884;4.768;2022-07-22T10:05:49;4.7;;;2.9;;
58306;SDS011;44116;50.884;4.768;2022-07-22T10:07:50;6.8;;;3.1;;
58306;SDS011;44116;50.884;4.768;2022-07-22T10:09:50;8.0;;;2.8;;
58306;SDS011;44116;50.884;4.768;2022-07-22T10:11:49;5.0;;;3.2;;
58306;SDS011;44116;50.884;4.768;2022-07-22T10:13:50;4.7;;;3.0;;
58306;SDS011;44116;50.884;4.768;2022-07-22T10:15:49;7.3;;;3.2;;
58306;SDS011;44116;50.884;4.768;2022-07-22T10:17:51;6.9;;;3.3;;
58306;SDS011;44116;50.884;4.768;2022-07-22T10:19:49;6.3;;;3.5;;
58306;SDS011;44116;50.884;4.768;2022-07-22T10:21:49;5.0;;;2.9;;
58306;SDS011;44116;50.884;4.768;2022-07-22T10:24:07;6.2;;;2.8;;
58306;SDS011;44116;50.884;4.768;2022-07-22T10:25:52;5.0;;;2.9;;
58306;SDS011;44116;50.884;4.768;2022-07-22T10:27:51;5.4;;;2.8;;
58306;SDS011;44116;50.884;4.768;2022-07-22T10:29:49;5.4;;;2.9;;
58306;SDS011;44116;50.884;4.768;2022-07-22T10:31:49;5.2;;;2.8;;
58306;SDS011;44116;50.884;4.768;2022-07-22T10:33:50;5.1;;;3.1;;
58306;SDS011;44116;50.884;4.768;2022-07-22T10:35:54;5.5;;;3.0;;
58306;SDS011;44116;50.884;4.768;2022-07-22T10:37:51;6.1;;;3.4;;
58306;SDS011;44116;50.884;4.768;2022-07-22T10:41:52;5.8;;;3.3;;
58306;SDS011;44116;50.884;4.768;2022-07-22T10:43:49;6.3;;;3.2;;
58306;SDS011;44116;50.884;4.768;2022-07-22T10:49:49;5.8;;;3.0;;
58306;SDS011;44116;50.884;4.768;2022-07-22T10:53:54;5.8;;;2.9;;
58306;SDS011;44116;50.884;4.768;2022-07-22T10:56:00;5.6;;;3.2;;
58306;SDS011;44116;50.884;4.768;2022-07-22T10:59:53;4.5;;;3.0;;
58306;SDS011;44116;50.884;4.768;2022-07-22T11:01:51;7.3;;;3.2;;
58306;SDS011;44116;50.884;4.768;2022-07-22T11:03:49;7.3;;;3.5;;
58306;SDS011;44116;50.884;4.768;2022-07-22T11:05:49;5.0;;;3.1;;
58306;SDS011;44116;50.884;4.768;2022-07-22T11:07:49;5.1;;;2.8;;
58306;SDS011;44116;50.884;4.768;2022-07-22T11:09:49;7.1;;;3.3;;
58306;SDS011;44116;50.884;4.768;2022-07-22T11:17:49;4.1;;;3.1;;
58306;SDS011;44116;50.884;4.768;2022-07-22T11:19:51;6.6;;;3.8;;
58306;SDS011;44116;50.884;4.768;2022-07-22T11:21:51;12.9;;;4.4;;
58306;SDS011;44116;50.884;4.768;2022-07-22T11:23:52;17.8;;;6.2;;
58306;SDS011;44116;50.884;4.768;2022-07-22T11:25:51;8.5;;;3.9;;
58306;SDS011;44116;50.884;4.768;2022-07-22T11:27:51;5.4;;;3.5;;
58306;SDS011;44116;50.884;4.768;2022-07-22T11:29:51;6.6;;;3.6;;
58306;SDS011;44116;50.884;4.768;2022-07-22T11:33:49;6.5;;;3.5;;
58306;SDS011;44116;50.884;4.768;2022-07-22T11:36:00;6.5;;;3.7;;
58306;SDS011;44116;50.884;4.768;2022-07-22T11:37:55;7.1;;;3.8;;
58306;SDS011;44116;50.884;4.768;2022-07-22T11:39:50;7.1;;;4.0;;
58306;SDS011;44116;50.884;4.768;2022-07-22T11:41:50;5.7;;;3.9;;
58306;SDS011;44116;50.884;4.768;2022-07-22T11:45:57;8.9;;;3.5;;
58306;SDS011;44116;50.884;4.768;2022-07-22T11:49:50;10.9;;;4.5;;
58306;SDS011;44116;50.884;4.768;2022-07-22T11:51:51;5.8;;;3.7;;
58306;SDS011;44116;50.884;4.768;2022-07-22T11:53:50;7.1;;;4.0;;
58306;SDS011;44116;50.884;4.768;2022-07-22T11:55:50;5.6;;;3.7;;
58306;SDS011;44116;50.884;4.768;2022-07-22T11:59:50;6.6;;;3.8;;
58306;SDS011;44116;50.884;4.768;2022-07-22T12:01:51;5.8;;;3.9;;
58306;SDS011;44116;50.884;4.768;2022-07-22T12:03:52;6.1;;;3.6;;
58306;SDS011;44116;50.884;4.768;2022-07-22T12:05:50;6.5;;;3.5;;
58306;SDS011;44116;50.884;4.768;2022-07-22T12:07:50;7.0;;;3.4;;
58306;SDS011;44116;50.884;4.768;2022-07-22T12:09:50;8.0;;;3.6;;
58306;SDS011;44116;50.884;4.768;2022-07-22T12:11:55;5.1;;;3.3;;
58306;SDS011;44116;50.884;4.768;2022-07-22T12:13:52;6.5;;;3.8;;
58306;SDS011;44116;50.884;4.768;2022-07-22T12:15:50;7.2;;;3.7;;
58306;SDS011;44116;50.884;4.768;2022-07-22T12:17:50;6.1;;;3.5;;
58306;SDS011;44116;50.884;4.768;2022-07-22T12:23:52;4.8;;;3.4;;
58306;SDS011;44116;50.884;4.768;2022-07-22T12:25:52;7.1;;;3.6;;
58306;SDS011;44116;50.884;4.768;2022-07-22T12:29:51;5.8;;;3.2;;
58306;SDS011;44116;50.884;4.768;2022-07-22T12:31:53;6.5;;;3.4;;
58306;SDS011;44116;50.884;4.768;2022-07-22T12:37:51;6.0;;;3.3;;
58306;SDS011;44116;50.884;4.768;2022-07-22T12:39:52;7.3;;;3.5;;
58306;SDS011;44116;50.884;4.768;2022-07-22T12:41:53;5.0;;;3.4;;
58306;SDS011;44116;50.884;4.768;2022-07-22T12:43:51;7.4;;;3.0;;
58306;SDS011;44116;50.884;4.768;2022-07-22T12:45:51;5.6;;;3.2;;
58306;SDS011;44116;50.884;4.768;2022-07-22T12:47:53;5.5;;;3.4;;
58306;SDS011;44116;50.884;4.768;2022-07-22T12:49:51;6.1;;;3.2;;
58306;SDS011;44116;50.884;4.768;2022-07-22T12:52:09;5.1;;;3.3;;
58306;SDS011;44116;50.884;4.768;2022-07-22T12:53:51;7.3;;;3.2;;
58306;SDS011;44116;50.884;4.768;2022-07-22T12:55:54;6.0;;;3.5;;
58306;SDS011;44116;50.884;4.768;2022-07-22T12:57:52;6.4;;;3.3;;
58306;SDS011;44116;50.884;4.768;2022-07-22T12:59:52;4.4;;;2.8;;
58306;SDS011;44116;50.884;4.768;2022-07-22T13:01:51;4.2;;;2.7;;
58306;SDS011;44116;50.884;4.768;2022-07-22T13:03:52;5.6;;;3.1;;
58306;SDS011;44116;50.884;4.768;2022-07-22T13:05:54;5.1;;;3.4;;
58306;SDS011;44116;50.884;4.768;2022-07-22T13:07:52;5.3;;;3.2;;
58306;SDS011;44116;50.884;4.768;2022-07-22T13:09:52;5.6;;;3.3;;
58306;SDS011;44116;50.884;4.768;2022-07-22T13:11:52;4.6;;;2.9;;
58306;SDS011;44116;50.884;4.768;2022-07-22T13:13:52;7.5;;;3.5;;
58306;SDS011;44116;50.884;4.768;2022-07-22T13:15:52;5.9;;;2.9;;
58306;SDS011;44116;50.884;4.768;2022-07-22T13:17:52;4.7;;;3.1;;
58306;SDS011;44116;50.884;4.768;2022-07-22T13:19:52;5.4;;;3.0;;
58306;SDS011;44116;50.884;4.768;2022-07-22T13:21:52;5.9;;;2.8;;
58306;SDS011;44116;50.884;4.768;2022-07-22T13:23:52;5.6;;;2.9;;
58306;SDS011;44116;50.884;4.768;2022-07-22T13:25:53;6.1;;;3.1;;
58306;SDS011;44116;50.884;4.768;2022-07-22T13:27:53;6.2;;;3.3;;
58306;SDS011;44116;50.884;4.768;2022-07-22T13:29:53;6.0;;;3.0;;
58306;SDS011;44116;50.884;4.768;2022-07-22T13:31:52;5.1;;;3.1;;
58306;SDS011;44116;50.884;4.768;2022-07-22T13:33:52;6.5;;;3.5;;
58306;SDS011;44116;50.884;4.768;2022-07-22T13:35:53;6.7;;;3.1;;
58306;SDS011;44116;50.884;4.768;2022-07-22T13:37:53;4.5;;;2.9;;
58306;SDS011;44116;50.884;4.768;2022-07-22T13:39:53;5.5;;;3.2;;
58306;SDS011;44116;50.884;4.768;2022-07-22T13:41:53;4.5;;;2.8;;
58306;SDS011;44116;50.884;4.768;2022-07-22T13:43:53;5.5;;;2.9;;
58306;SDS011;44116;50.884;4.768;2022-07-22T13:45:53;7.6;;;3.2;;
58306;SDS011;44116;50.884;4.768;2022-07-22T13:47:53;7.4;;;3.4;;
58306;SDS011;44116;50.884;4.768;2022-07-22T13:49:53;6.2;;;3.1;;
58306;SDS011;44116;50.884;4.768;2022-07-22T13:51:53;4.8;;;2.9;;
58306;SDS011;44116;50.884;4.768;2022-07-22T13:53:53;5.3;;;3.0;;
58306;SDS011;44116;50.884;4.768;2022-07-22T13:55:53;5.3;;;2.6;;
58306;SDS011;44116;50.884;4.768;2022-07-22T13:57:53;5.5;;;3.0;;
58306;SDS011;44116;50.884;4.768;2022-07-22T13:59:53;6.0;;;3.2;;
58306;SDS011;44116;50.884;4.768;2022-07-22T14:01:53;6.0;;;3.0;;
58306;SDS011;44116;50.884;4.768;2022-07-22T14:03:54;5.2;;;3.1;;
58306;SDS011;44116;50.884;4.768;2022-07-22T14:05:54;7.1;;;3.5;;
58306;SDS011;44116;50.884;4.768;2022-07-22T14:07:54;5.5;;;2.8;;
58306;SDS011;44116;50.884;4.768;2022-07-22T14:09:54;5.2;;;3.2;;